Mandaguari, Brazil
Current Conditions -  °F | °C
As of 5:00 PM on Thursday 30 Oct 2014 (Local Time) from SBMG Reporting Station
Rain Showers Rain Showers  
Wind Chill: 90°   Ceiling: Unl
Heat Index: 91°   Visibility: 6mi
Dew Point: 64°   Wind: 5mph
Humidity: 43%   Direction: 300°WNW
Pressure: 29.74"   Gusts: NA
Location:  23.55°S, 51.67°W
Report Text: SBMG 301900Z 30004KT 9999 VCSH FEW045 FEW050TCU 32/18 Q1007
Loading
Personal Weather Stations






























Interactive Weather Map
Tropical Storm Tracking
New forecast layout! Learn more

10-Day Weather Forecast

Advertisements
Track Severe Weather on mobile